createdAt,value
2023-02-24T00:01:25.111Z,3.79
2023-02-24T00:08:07.446Z,3.83
2023-02-24T00:14:49.790Z,3.83
2023-02-24T00:21:32.282Z,3.84
2023-02-24T00:28:14.610Z,3.85
2023-02-24T00:34:58.140Z,3.84
2023-02-24T00:41:43.218Z,3.84
2023-02-24T00:48:28.410Z,3.83
2023-02-24T00:55:15.082Z,3.82
2023-02-24T01:01:57.628Z,3.82
2023-02-24T01:08:42.900Z,3.82
2023-02-24T01:15:25.710Z,3.80
2023-02-24T01:22:10.160Z,3.80
2023-02-24T01:28:55.685Z,3.82
2023-02-24T01:35:38.043Z,3.84
2023-02-24T01:42:22.123Z,3.84
2023-02-24T01:49:34.772Z,3.86
2023-02-24T01:56:17.616Z,3.88
2023-02-24T02:03:33.848Z,3.89
2023-02-24T02:10:18.557Z,3.92
2023-02-24T02:17:13.491Z,3.95
2023-02-24T02:24:26.937Z,3.95
2023-02-24T02:32:07.797Z,3.95
2023-02-24T02:39:03.271Z,3.96
2023-02-24T02:46:17.867Z,3.97
2023-02-24T02:53:12.295Z,3.98
2023-02-24T03:00:21.395Z,3.98
2023-02-24T03:07:05.350Z,3.97
2023-02-24T03:13:55.501Z,3.97
2023-02-24T03:20:51.703Z,3.97
2023-02-24T03:27:52.829Z,3.97
2023-02-24T03:35:07.854Z,3.99
2023-02-24T03:42:03.594Z,4.02
2023-02-24T03:49:01.313Z,4.06
2023-02-24T03:55:48.705Z,4.07
2023-02-24T04:02:33.973Z,4.09
2023-02-24T04:09:39.142Z,4.11
2023-02-24T04:16:47.339Z,4.12
2023-02-24T04:23:44.884Z,4.13
2023-02-24T04:30:35.244Z,4.15
2023-02-24T04:37:23.210Z,4.15
2023-02-24T04:44:06.828Z,4.18
2023-02-24T04:50:55.367Z,4.20
2023-02-24T04:57:40.648Z,4.21
2023-02-24T05:04:24.147Z,4.21
2023-02-24T05:11:07.239Z,4.21
2023-02-24T05:17:52.634Z,4.21
2023-02-24T05:24:35.682Z,4.22
2023-02-24T05:31:24.208Z,4.22
2023-02-24T05:38:08.520Z,4.22
2023-02-24T05:44:51.022Z,4.22
2023-02-24T05:51:37.131Z,4.21
2023-02-24T05:58:19.597Z,4.19
2023-02-24T06:05:08.937Z,4.13
2023-02-24T06:11:51.497Z,4.09
2023-02-24T06:18:34.140Z,4.03
2023-02-24T06:25:18.597Z,3.98
2023-02-24T06:32:08.905Z,3.96
2023-02-24T06:38:52.778Z,3.96
2023-02-24T06:45:35.652Z,3.96
2023-02-24T06:52:19.497Z,3.94
2023-02-24T06:59:02.069Z,3.92
2023-02-24T07:06:11.103Z,3.90
2023-02-24T07:12:55.106Z,3.87
2023-02-24T07:19:37.704Z,3.79
2023-02-24T07:26:24.092Z,3.74
2023-02-24T07:33:08.422Z,3.72
2023-02-24T07:39:51.883Z,3.73
2023-02-24T07:46:34.328Z,3.70
2023-02-24T07:53:18.899Z,3.70
2023-02-24T08:00:14.308Z,3.63
2023-02-24T08:06:59.174Z,3.52
2023-02-24T08:13:41.499Z,3.43
2023-02-24T08:20:25.264Z,3.38
2023-02-24T08:27:07.612Z,3.42
2023-02-24T08:33:50.439Z,3.40
2023-02-24T08:40:39.790Z,3.35
2023-02-24T08:47:31.031Z,3.22
2023-02-24T08:54:19.060Z,2.98
2023-02-24T09:01:03.781Z,2.79
2023-02-24T09:07:54.763Z,2.65
2023-02-24T09:14:37.579Z,2.53
2023-02-24T09:21:38.494Z,2.37
2023-02-24T09:28:24.797Z,2.28
2023-02-24T09:35:07.587Z,2.20
2023-02-24T09:41:58.866Z,2.25
2023-02-24T09:49:12.929Z,2.24
2023-02-24T09:56:16.198Z,2.23
2023-02-24T10:03:44.522Z,2.13
2023-02-24T10:10:35.938Z,2.07
2023-02-24T10:17:25.597Z,2.05
2023-02-24T10:24:30.790Z,2.04
2023-02-24T10:31:30.015Z,2.10
2023-02-24T10:38:12.914Z,2.19
2023-02-24T10:45:18.361Z,2.22
2023-02-24T10:52:09.095Z,2.32
2023-02-24T10:59:24.640Z,2.52
2023-02-24T11:06:43.205Z,2.74
2023-02-24T11:13:44.825Z,2.90
2023-02-24T11:20:51.774Z,3.06
2023-02-24T11:27:34.855Z,3.11
2023-02-24T11:34:25.193Z,3.20
2023-02-24T11:41:26.182Z,3.22
2023-02-24T11:48:32.413Z,3.23
2023-02-24T11:55:38.837Z,3.17
2023-02-24T12:02:47.817Z,3.16
2023-02-24T12:09:44.960Z,3.19
2023-02-24T12:16:38.158Z,3.20
2023-02-24T12:23:32.543Z,3.20
2023-02-24T12:30:49.009Z,3.20
2023-02-24T12:38:03.600Z,3.21
2023-02-24T12:45:03.597Z,3.17
2023-02-24T12:51:57.962Z,3.17
2023-02-24T12:58:45.676Z,3.16
2023-02-24T13:05:29.713Z,3.11
2023-02-24T13:12:23.947Z,3.12
2023-02-24T13:19:29.341Z,3.14
2023-02-24T13:26:11.677Z,3.18
2023-02-24T13:33:18.841Z,3.26
2023-02-24T13:40:12.703Z,3.32
2023-02-24T13:47:11.751Z,3.37
2023-02-24T13:54:50.150Z,3.45
2023-02-24T14:01:45.885Z,3.52
2023-02-24T14:08:42.590Z,3.60
2023-02-24T14:15:27.896Z,3.64
2023-02-24T14:22:19.200Z,3.63
2023-02-24T14:29:02.268Z,3.58
2023-02-24T14:35:47.543Z,3.53
2023-02-24T14:42:29.793Z,3.50
2023-02-24T14:49:25.688Z,3.45
2023-02-24T14:56:11.633Z,3.39
2023-02-24T15:03:23.038Z,3.37
2023-02-24T15:10:07.712Z,3.31
2023-02-24T15:16:56.926Z,3.25
2023-02-24T15:23:39.460Z,3.21
2023-02-24T15:30:52.076Z,3.16
2023-02-24T15:37:44.856Z,3.12
2023-02-24T15:44:36.357Z,3.12
2023-02-24T15:51:45.467Z,3.09
2023-02-24T15:58:27.826Z,3.03
2023-02-24T16:05:14.039Z,2.99
2023-02-24T16:11:57.213Z,2.94
2023-02-24T16:18:39.782Z,2.87
2023-02-24T16:25:22.772Z,2.84
2023-02-24T16:32:05.566Z,2.81
2023-02-24T16:38:50.970Z,2.76
2023-02-24T16:45:35.878Z,2.71
2023-02-24T16:52:19.385Z,2.66
2023-02-24T16:59:04.777Z,2.61
2023-02-24T17:05:47.785Z,2.60
2023-02-24T17:12:30.107Z,2.56
2023-02-24T17:19:13.218Z,2.49
2023-02-24T17:25:59.937Z,2.44
2023-02-24T17:32:42.502Z,2.40
2023-02-24T17:39:24.930Z,2.34
2023-02-24T17:46:07.752Z,2.28
2023-02-24T17:52:50.159Z,2.27
2023-02-24T17:59:32.469Z,2.27
2023-02-24T18:06:14.782Z,2.27
2023-02-24T18:12:57.048Z,2.26
2023-02-24T18:19:39.663Z,2.28
2023-02-24T18:26:24.150Z,2.28
2023-02-24T18:33:07.060Z,2.29
2023-02-24T18:39:50.862Z,2.27
2023-02-24T18:46:36.313Z,2.24
2023-02-24T18:53:19.914Z,2.21
2023-02-24T19:00:06.704Z,2.17
2023-02-24T19:06:49.268Z,2.12
2023-02-24T19:13:32.078Z,2.09
2023-02-24T19:20:15.370Z,2.06
2023-02-24T19:26:57.681Z,2.04
2023-02-24T19:33:40.163Z,2.01
2023-02-24T19:40:23.619Z,1.99
2023-02-24T19:47:05.937Z,1.98
2023-02-24T19:53:55.775Z,2.00
2023-02-24T20:00:38.088Z,1.99
2023-02-24T20:07:20.628Z,2.01
2023-02-24T20:14:03.940Z,2.03
2023-02-24T20:20:48.932Z,2.04
2023-02-24T20:27:33.581Z,2.07
2023-02-24T20:34:16.874Z,2.06
2023-02-24T20:41:04.001Z,2.08
2023-02-24T20:47:46.309Z,2.10
2023-02-24T20:54:29.017Z,2.10
2023-02-24T21:01:13.556Z,2.10
2023-02-24T21:07:55.994Z,2.08
2023-02-24T21:14:38.462Z,2.08
2023-02-24T21:21:21.279Z,2.08
2023-02-24T21:28:03.886Z,2.07
2023-02-24T21:34:46.371Z,2.05
2023-02-24T21:41:28.714Z,2.04
2023-02-24T21:48:11.693Z,2.04
2023-02-24T21:54:54.166Z,2.03
2023-02-24T22:01:41.312Z,2.01
2023-02-24T22:08:25.068Z,2.00
2023-02-24T22:15:09.030Z,2.02
2023-02-24T22:21:51.724Z,2.01
2023-02-24T22:28:36.110Z,2.01
2023-02-24T22:35:21.727Z,2.03
2023-02-24T22:42:04.593Z,2.03
2023-02-24T22:48:47.420Z,2.03
2023-02-24T22:55:29.700Z,2.03
2023-02-24T23:02:12.041Z,2.03
2023-02-24T23:08:55.141Z,2.04
2023-02-24T23:15:39.209Z,2.02
2023-02-24T23:22:21.867Z,2.02
2023-02-24T23:29:06.403Z,2.05
2023-02-24T23:35:49.109Z,2.05
2023-02-24T23:42:31.438Z,2.06
2023-02-24T23:49:13.789Z,2.09
2023-02-24T23:55:56.102Z,2.09
